Battlement Mesa, Colorado
Current Conditions -  °F | °C
As of 6:53 PM on Friday 24 Oct 2014 (Local Time) from KRIL Reporting Station
Clear Clear  
Wind Chill: 61°   Ceiling: Unl
Heat Index: 61°   Visibility: 10mi
Dew Point: 36°   Wind: 7mph
Humidity: 39%   Direction: 120°ESE
Pressure: 30.24"   Gusts: NA
Location:  39.44°N, 108.03°W
Report Text: KRIL 250053Z AUTO 12006KT 10SM CLR 16/02 A3024 RMK AO2 SLP216 T01610022
Loading
Personal Weather Stations






























Interactive Weather Map
Tropical Storm Tracking
New forecast layout! Learn more

10-Day Weather Forecast

Advertisements
Track Severe Weather on mobile